Lamont, Wyoming
Current Conditions -  °F | °C
As of 6:35 AM on Friday 28 Nov 2014 (Local Time) from KFWZ Reporting Station
Clear Clear  
Wind Chill: -4°   Ceiling: Unl
Heat Index:   Visibility: 10mi
Dew Point: -10°   Wind: 29mph
Humidity: 38%   Direction: 250°WSW
Pressure: 29.91"   Gusts: 37mph
Location:  42.1657°N, 107.989°W
Report Text: KFWZ 281335Z AUTO 25025G32KT 10SM CLR 03/M10 A2991 RMK AO2
Loading
Personal Weather Stations






























Interactive Weather Map New forecast layout! Learn more

10-Day Weather Forecast

Advertisements
Track Severe Weather on mobile